createdAt,value
2017-06-15T14:59:44.510Z,1001.7
2017-06-15T16:20:22.823Z,1002.7
2017-06-15T16:22:38.681Z,1002.7
2017-06-15T16:32:47.256Z,1000.4
2017-06-15T16:42:56.036Z,1002.3
2017-06-15T16:53:04.984Z,1002
2017-06-15T17:03:13.936Z,1004.4
2017-06-15T17:13:22.754Z,1002.3
2017-06-15T17:23:31.437Z,1002.1
2017-06-15T17:33:40.013Z,1002.1
2017-06-15T17:43:48.539Z,1002
2017-06-15T17:53:57.028Z,1002.1
2017-06-15T18:04:05.424Z,1002.1
2017-06-15T18:14:13.597Z,1002.1
2017-06-15T18:24:21.512Z,1002.1
2017-06-15T18:34:29.317Z,1002.1
2017-06-15T18:44:37.129Z,1002.2
2017-06-15T18:54:44.942Z,1002.5
2017-06-15T19:04:52.897Z,1002.5
2017-06-15T19:15:00.956Z,1002.7
2017-06-15T19:25:09.191Z,1002.9
2017-06-15T19:35:17.545Z,1003.2
2017-06-15T19:45:26.014Z,1003.2
2017-06-15T19:55:34.661Z,1003.4
2017-06-15T20:05:43.383Z,1003.5
2017-06-15T20:15:52.211Z,1003.6
2017-06-15T20:26:01.151Z,1003.7
2017-06-15T20:36:10.046Z,1003.7
2017-06-15T20:46:19.022Z,1003.8
2017-06-15T20:56:28.030Z,1004
2017-06-15T21:06:37.053Z,1004
2017-06-15T21:16:46.130Z,1003.9
2017-06-15T21:26:55.220Z,1004
2017-06-15T21:37:04.381Z,1004
2017-06-15T21:47:13.628Z,1004.1
2017-06-15T21:57:22.949Z,1004.1
2017-06-15T22:07:32.264Z,1003.9
2017-06-15T22:17:41.600Z,1004
2017-06-15T22:27:50.931Z,1004.1
2017-06-15T22:38:00.348Z,1004.1
2017-06-15T22:48:09.862Z,1004.1
2017-06-15T22:58:19.378Z,1004.2
2017-06-15T23:08:28.892Z,1004.2
2017-06-15T23:18:38.456Z,1004.3
2017-06-15T23:28:48.011Z,1004.3
2017-06-15T23:38:57.503Z,1004.3
2017-06-15T23:49:07.053Z,1004.3
2017-06-15T23:59:16.329Z,1004.4
